sensor_id;sensor_type;location;lat;lon;timestamp;P1;durP1;ratioP1;P2;durP2;ratioP2
3967;SDS011;9221;42.646;23.380;2023-03-23T00:02:29;64.07;;;18.67;;
3967;SDS011;9221;42.646;23.380;2023-03-23T00:05:00;87.73;;;20.20;;
3967;SDS011;9221;42.646;23.380;2023-03-23T00:07:28;98.20;;;20.27;;
3967;SDS011;9221;42.646;23.380;2023-03-23T00:09:54;60.70;;;19.30;;
3967;SDS011;9221;42.646;23.380;2023-03-23T00:12:20;50.00;;;18.23;;
3967;SDS011;9221;42.646;23.380;2023-03-23T00:14:59;45.57;;;17.50;;
3967;SDS011;9221;42.646;23.380;2023-03-23T00:17:26;51.00;;;18.40;;
3967;SDS011;9221;42.646;23.380;2023-03-23T00:19:53;48.30;;;18.33;;
3967;SDS011;9221;42.646;23.380;2023-03-23T00:22:18;51.00;;;18.80;;
3967;SDS011;9221;42.646;23.380;2023-03-23T00:24:46;50.47;;;18.87;;
3967;SDS011;9221;42.646;23.380;2023-03-23T00:27:13;62.10;;;19.93;;
3967;SDS011;9221;42.646;23.380;2023-03-23T00:29:39;56.97;;;16.90;;
3967;SDS011;9221;42.646;23.380;2023-03-23T00:32:07;42.80;;;17.73;;
3967;SDS011;9221;42.646;23.380;2023-03-23T00:34:37;48.23;;;16.33;;
3967;SDS011;9221;42.646;23.380;2023-03-23T00:37:05;41.63;;;16.67;;
3967;SDS011;9221;42.646;23.380;2023-03-23T00:39:31;46.47;;;15.30;;
3967;SDS011;9221;42.646;23.380;2023-03-23T00:41:56;45.93;;;15.43;;
3967;SDS011;9221;42.646;23.380;2023-03-23T00:44:25;45.87;;;16.60;;
3967;SDS011;9221;42.646;23.380;2023-03-23T00:46:53;43.73;;;15.50;;
3967;SDS011;9221;42.646;23.380;2023-03-23T00:49:21;49.60;;;15.40;;
3967;SDS011;9221;42.646;23.380;2023-03-23T00:51:50;37.10;;;12.97;;
3967;SDS011;9221;42.646;23.380;2023-03-23T00:54:16;30.73;;;12.20;;
3967;SDS011;9221;42.646;23.380;2023-03-23T00:56:41;30.90;;;10.20;;
3967;SDS011;9221;42.646;23.380;2023-03-23T00:59:07;24.83;;;9.07;;
3967;SDS011;9221;42.646;23.380;2023-03-23T01:01:33;24.90;;;10.00;;
3967;SDS011;9221;42.646;23.380;2023-03-23T01:03:59;22.30;;;8.37;;
3967;SDS011;9221;42.646;23.380;2023-03-23T01:06:29;22.97;;;8.13;;
3967;SDS011;9221;42.646;23.380;2023-03-23T01:09:06;22.63;;;7.80;;
3967;SDS011;9221;42.646;23.380;2023-03-23T01:11:33;15.37;;;6.50;;
3967;SDS011;9221;42.646;23.380;2023-03-23T01:13:59;22.67;;;8.20;;
3967;SDS011;9221;42.646;23.380;2023-03-23T01:16:25;18.93;;;6.90;;
3967;SDS011;9221;42.646;23.380;2023-03-23T01:18:50;19.40;;;7.53;;
3967;SDS011;9221;42.646;23.380;2023-03-23T01:21:16;15.73;;;7.67;;
3967;SDS011;9221;42.646;23.380;2023-03-23T01:23:43;23.47;;;7.77;;
3967;SDS011;9221;42.646;23.380;2023-03-23T01:26:11;21.67;;;9.03;;
3967;SDS011;9221;42.646;23.380;2023-03-23T01:28:38;21.43;;;9.33;;
3967;SDS011;9221;42.646;23.380;2023-03-23T01:31:08;23.47;;;8.83;;
3967;SDS011;9221;42.646;23.380;2023-03-23T01:33:37;25.60;;;8.60;;
3967;SDS011;9221;42.646;23.380;2023-03-23T01:38:42;21.83;;;9.10;;
3967;SDS011;9221;42.646;23.380;2023-03-23T01:41:10;28.80;;;10.63;;
3967;SDS011;9221;42.646;23.380;2023-03-23T01:43:36;21.50;;;9.57;;
3967;SDS011;9221;42.646;23.380;2023-03-23T01:46:18;24.40;;;9.70;;
3967;SDS011;9221;42.646;23.380;2023-03-23T01:48:43;37.67;;;10.50;;
3967;SDS011;9221;42.646;23.380;2023-03-23T01:51:10;32.93;;;12.00;;
3967;SDS011;9221;42.646;23.380;2023-03-23T01:53:44;38.83;;;12.73;;
3967;SDS011;9221;42.646;23.380;2023-03-23T01:56:18;38.23;;;13.33;;
3967;SDS011;9221;42.646;23.380;2023-03-23T01:58:50;36.17;;;13.30;;
3967;SDS011;9221;42.646;23.380;2023-03-23T02:01:16;40.33;;;14.17;;
3967;SDS011;9221;42.646;23.380;2023-03-23T02:03:42;46.60;;;15.70;;
3967;SDS011;9221;42.646;23.380;2023-03-23T02:06:10;42.30;;;14.50;;
3967;SDS011;9221;42.646;23.380;2023-03-23T02:08:36;38.33;;;15.20;;
3967;SDS011;9221;42.646;23.380;2023-03-23T02:11:13;46.23;;;15.50;;
3967;SDS011;9221;42.646;23.380;2023-03-23T02:13:43;38.77;;;14.73;;
3967;SDS011;9221;42.646;23.380;2023-03-23T02:24:28;42.43;;;15.63;;
3967;SDS011;9221;42.646;23.380;2023-03-23T02:32:56;28.57;;;11.50;;
3967;SDS011;9221;42.646;23.380;2023-03-23T02:36:25;28.57;;;12.13;;
3967;SDS011;9221;42.646;23.380;2023-03-23T02:41:16;37.03;;;12.60;;
3967;SDS011;9221;42.646;23.380;2023-03-23T02:43:46;34.03;;;12.67;;
3967;SDS011;9221;42.646;23.380;2023-03-23T02:46:13;39.40;;;13.97;;
3967;SDS011;9221;42.646;23.380;2023-03-23T02:48:40;31.67;;;11.77;;
3967;SDS011;9221;42.646;23.380;2023-03-23T02:51:09;30.93;;;11.43;;
3967;SDS011;9221;42.646;23.380;2023-03-23T02:53:37;28.90;;;10.60;;
3967;SDS011;9221;42.646;23.380;2023-03-23T02:56:07;24.37;;;9.93;;
3967;SDS011;9221;42.646;23.380;2023-03-23T02:58:34;25.07;;;9.57;;
3967;SDS011;9221;42.646;23.380;2023-03-23T03:01:12;27.63;;;9.40;;
3967;SDS011;9221;42.646;23.380;2023-03-23T03:03:53;26.93;;;9.63;;
3967;SDS011;9221;42.646;23.380;2023-03-23T03:06:31;27.00;;;9.93;;
3967;SDS011;9221;42.646;23.380;2023-03-23T03:11:43;25.83;;;9.63;;
3967;SDS011;9221;42.646;23.380;2023-03-23T03:14:13;20.50;;;8.43;;
3967;SDS011;9221;42.646;23.380;2023-03-23T03:19:25;26.53;;;8.67;;
3967;SDS011;9221;42.646;23.380;2023-03-23T03:21:54;17.20;;;7.57;;
3967;SDS011;9221;42.646;23.380;2023-03-23T03:24:23;23.00;;;8.87;;
3967;SDS011;9221;42.646;23.380;2023-03-23T03:26:52;24.90;;;9.50;;
3967;SDS011;9221;42.646;23.380;2023-03-23T03:29:27;23.43;;;8.50;;
3967;SDS011;9221;42.646;23.380;2023-03-23T03:31:55;27.00;;;8.77;;
3967;SDS011;9221;42.646;23.380;2023-03-23T03:34:23;21.27;;;9.17;;
3967;SDS011;9221;42.646;23.380;2023-03-23T03:36:49;29.40;;;9.67;;
3967;SDS011;9221;42.646;23.380;2023-03-23T03:39:18;21.03;;;8.17;;
3967;SDS011;9221;42.646;23.380;2023-03-23T03:41:46;23.27;;;8.60;;
3967;SDS011;9221;42.646;23.380;2023-03-23T03:44:11;21.20;;;7.83;;
3967;SDS011;9221;42.646;23.380;2023-03-23T03:46:37;18.57;;;7.23;;
3967;SDS011;9221;42.646;23.380;2023-03-23T03:49:04;19.47;;;6.60;;
3967;SDS011;9221;42.646;23.380;2023-03-23T03:51:32;17.60;;;6.43;;
3967;SDS011;9221;42.646;23.380;2023-03-23T03:53:58;16.90;;;7.20;;
3967;SDS011;9221;42.646;23.380;2023-03-23T03:56:24;18.80;;;7.30;;
3967;SDS011;9221;42.646;23.380;2023-03-23T03:58:50;21.87;;;7.70;;
3967;SDS011;9221;42.646;23.380;2023-03-23T04:01:17;20.80;;;8.20;;
3967;SDS011;9221;42.646;23.380;2023-03-23T04:03:46;21.93;;;8.00;;
3967;SDS011;9221;42.646;23.380;2023-03-23T04:06:12;20.90;;;7.77;;
3967;SDS011;9221;42.646;23.380;2023-03-23T04:08:40;20.70;;;7.70;;
3967;SDS011;9221;42.646;23.380;2023-03-23T04:11:09;20.83;;;7.53;;
3967;SDS011;9221;42.646;23.380;2023-03-23T04:13:37;21.27;;;7.27;;
3967;SDS011;9221;42.646;23.380;2023-03-23T04:16:02;16.70;;;7.40;;
3967;SDS011;9221;42.646;23.380;2023-03-23T04:18:28;28.43;;;8.20;;
3967;SDS011;9221;42.646;23.380;2023-03-23T04:20:54;18.57;;;7.20;;
3967;SDS011;9221;42.646;23.380;2023-03-23T04:23:24;17.83;;;7.47;;
3967;SDS011;9221;42.646;23.380;2023-03-23T04:25:52;23.20;;;8.30;;
3967;SDS011;9221;42.646;23.380;2023-03-23T04:28:22;14.20;;;6.37;;
3967;SDS011;9221;42.646;23.380;2023-03-23T04:30:49;18.90;;;7.40;;
3967;SDS011;9221;42.646;23.380;2023-03-23T04:33:18;18.23;;;8.17;;
3967;SDS011;9221;42.646;23.380;2023-03-23T04:35:45;17.93;;;7.27;;
3967;SDS011;9221;42.646;23.380;2023-03-23T04:38:13;21.20;;;8.20;;
3967;SDS011;9221;42.646;23.380;2023-03-23T04:40:41;32.33;;;8.80;;
3967;SDS011;9221;42.646;23.380;2023-03-23T04:43:08;21.33;;;8.73;;
3967;SDS011;9221;42.646;23.380;2023-03-23T04:45:37;21.30;;;7.70;;
3967;SDS011;9221;42.646;23.380;2023-03-23T04:48:06;17.20;;;7.63;;
3967;SDS011;9221;42.646;23.380;2023-03-23T04:50:33;18.47;;;7.63;;
3967;SDS011;9221;42.646;23.380;2023-03-23T04:53:00;22.20;;;8.40;;
3967;SDS011;9221;42.646;23.380;2023-03-23T04:55:29;29.73;;;9.33;;
3967;SDS011;9221;42.646;23.380;2023-03-23T04:57:57;19.23;;;8.83;;
3967;SDS011;9221;42.646;23.380;2023-03-23T05:00:26;21.53;;;8.50;;
3967;SDS011;9221;42.646;23.380;2023-03-23T05:02:51;21.33;;;8.80;;
3967;SDS011;9221;42.646;23.380;2023-03-23T05:05:17;22.33;;;8.83;;
3967;SDS011;9221;42.646;23.380;2023-03-23T05:07:44;27.57;;;11.23;;
3967;SDS011;9221;42.646;23.380;2023-03-23T05:10:11;28.67;;;9.93;;
3967;SDS011;9221;42.646;23.380;2023-03-23T05:12:38;22.90;;;7.80;;
3967;SDS011;9221;42.646;23.380;2023-03-23T05:15:04;24.27;;;8.40;;
3967;SDS011;9221;42.646;23.380;2023-03-23T05:17:30;24.17;;;8.77;;
3967;SDS011;9221;42.646;23.380;2023-03-23T05:19:57;19.90;;;7.80;;
3967;SDS011;9221;42.646;23.380;2023-03-23T05:22:23;19.53;;;8.07;;
3967;SDS011;9221;42.646;23.380;2023-03-23T05:24:52;20.43;;;7.50;;
3967;SDS011;9221;42.646;23.380;2023-03-23T05:27:17;18.77;;;7.47;;
3967;SDS011;9221;42.646;23.380;2023-03-23T05:29:44;20.40;;;8.27;;
3967;SDS011;9221;42.646;23.380;2023-03-23T05:32:11;24.60;;;9.10;;
3967;SDS011;9221;42.646;23.380;2023-03-23T05:34:36;31.33;;;10.97;;
3967;SDS011;9221;42.646;23.380;2023-03-23T05:37:02;35.37;;;12.00;;
3967;SDS011;9221;42.646;23.380;2023-03-23T05:39:29;43.97;;;13.70;;
3967;SDS011;9221;42.646;23.380;2023-03-23T05:41:56;36.40;;;13.90;;
3967;SDS011;9221;42.646;23.380;2023-03-23T05:44:21;37.00;;;12.20;;
3967;SDS011;9221;42.646;23.380;2023-03-23T05:46:47;36.07;;;13.43;;
3967;SDS011;9221;42.646;23.380;2023-03-23T05:49:14;30.93;;;12.87;;
3967;SDS011;9221;42.646;23.380;2023-03-23T05:51:41;40.13;;;13.70;;
3967;SDS011;9221;42.646;23.380;2023-03-23T05:54:07;34.80;;;13.10;;
3967;SDS011;9221;42.646;23.380;2023-03-23T05:56:33;37.70;;;13.77;;
3967;SDS011;9221;42.646;23.380;2023-03-23T05:58:59;35.83;;;14.40;;
3967;SDS011;9221;42.646;23.380;2023-03-23T06:01:25;40.77;;;14.60;;
3967;SDS011;9221;42.646;23.380;2023-03-23T06:03:50;40.30;;;13.00;;
3967;SDS011;9221;42.646;23.380;2023-03-23T06:06:19;40.50;;;14.30;;
3967;SDS011;9221;42.646;23.380;2023-03-23T06:08:45;37.70;;;13.90;;
3967;SDS011;9221;42.646;23.380;2023-03-23T06:11:11;37.50;;;14.17;;
3967;SDS011;9221;42.646;23.380;2023-03-23T06:13:38;38.63;;;14.53;;
3967;SDS011;9221;42.646;23.380;2023-03-23T06:16:03;39.77;;;15.20;;
3967;SDS011;9221;42.646;23.380;2023-03-23T06:18:29;40.13;;;12.87;;
3967;SDS011;9221;42.646;23.380;2023-03-23T06:20:58;25.90;;;10.43;;
3967;SDS011;9221;42.646;23.380;2023-03-23T06:23:25;29.17;;;11.43;;
3967;SDS011;9221;42.646;23.380;2023-03-23T06:25:53;29.20;;;11.30;;
3967;SDS011;9221;42.646;23.380;2023-03-23T06:28:19;28.83;;;12.70;;
3967;SDS011;9221;42.646;23.380;2023-03-23T06:30:45;41.63;;;14.40;;
3967;SDS011;9221;42.646;23.380;2023-03-23T06:33:10;33.17;;;13.63;;
3967;SDS011;9221;42.646;23.380;2023-03-23T06:35:36;31.30;;;11.40;;
3967;SDS011;9221;42.646;23.380;2023-03-23T06:38:01;21.47;;;8.70;;
3967;SDS011;9221;42.646;23.380;2023-03-23T06:40:28;20.10;;;7.90;;
3967;SDS011;9221;42.646;23.380;2023-03-23T06:42:54;20.03;;;7.60;;
3967;SDS011;9221;42.646;23.380;2023-03-23T06:45:21;41.37;;;8.73;;
3967;SDS011;9221;42.646;23.380;2023-03-23T06:47:46;18.83;;;8.47;;
3967;SDS011;9221;42.646;23.380;2023-03-23T06:50:14;19.07;;;7.97;;
3967;SDS011;9221;42.646;23.380;2023-03-23T06:52:44;20.03;;;8.07;;
3967;SDS011;9221;42.646;23.380;2023-03-23T06:55:10;18.43;;;8.10;;
3967;SDS011;9221;42.646;23.380;2023-03-23T06:57:36;19.30;;;8.43;;
3967;SDS011;9221;42.646;23.380;2023-03-23T07:00:02;21.27;;;8.50;;
3967;SDS011;9221;42.646;23.380;2023-03-23T07:02:30;17.00;;;8.00;;
3967;SDS011;9221;42.646;23.380;2023-03-23T07:04:55;18.13;;;7.43;;
3967;SDS011;9221;42.646;23.380;2023-03-23T07:07:21;22.03;;;7.97;;
3967;SDS011;9221;42.646;23.380;2023-03-23T07:09:46;18.57;;;7.73;;
3967;SDS011;9221;42.646;23.380;2023-03-23T07:12:12;18.80;;;7.73;;
3967;SDS011;9221;42.646;23.380;2023-03-23T07:14:39;18.87;;;8.10;;
3967;SDS011;9221;42.646;23.380;2023-03-23T07:17:04;21.63;;;8.40;;
3967;SDS011;9221;42.646;23.380;2023-03-23T07:19:30;19.80;;;9.77;;
3967;SDS011;9221;42.646;23.380;2023-03-23T07:21:56;21.40;;;9.63;;
3967;SDS011;9221;42.646;23.380;2023-03-23T07:24:22;27.10;;;10.60;;
3967;SDS011;9221;42.646;23.380;2023-03-23T07:26:47;33.67;;;12.40;;
3967;SDS011;9221;42.646;23.380;2023-03-23T07:29:12;37.53;;;14.13;;
3967;SDS011;9221;42.646;23.380;2023-03-23T07:31:38;30.77;;;13.50;;
3967;SDS011;9221;42.646;23.380;2023-03-23T07:34:04;41.83;;;13.57;;
3967;SDS011;9221;42.646;23.380;2023-03-23T07:36:29;30.30;;;13.30;;
3967;SDS011;9221;42.646;23.380;2023-03-23T07:38:55;29.80;;;12.53;;
3967;SDS011;9221;42.646;23.380;2023-03-23T07:41:21;32.60;;;13.13;;
3967;SDS011;9221;42.646;23.380;2023-03-23T07:43:47;35.13;;;14.27;;
3967;SDS011;9221;42.646;23.380;2023-03-23T07:46:13;31.77;;;14.00;;
3967;SDS011;9221;42.646;23.380;2023-03-23T07:48:39;39.47;;;14.63;;
3967;SDS011;9221;42.646;23.380;2023-03-23T07:51:05;45.00;;;14.67;;
3967;SDS011;9221;42.646;23.380;2023-03-23T07:53:32;33.70;;;14.50;;
3967;SDS011;9221;42.646;23.380;2023-03-23T07:55:58;37.47;;;14.57;;
3967;SDS011;9221;42.646;23.380;2023-03-23T07:58:23;39.67;;;13.70;;
3967;SDS011;9221;42.646;23.380;2023-03-23T08:00:51;30.13;;;14.03;;
3967;SDS011;9221;42.646;23.380;2023-03-23T08:03:17;34.83;;;12.03;;
3967;SDS011;9221;42.646;23.380;2023-03-23T08:05:43;34.30;;;13.93;;
3967;SDS011;9221;42.646;23.380;2023-03-23T08:08:09;33.73;;;14.50;;
3967;SDS011;9221;42.646;23.380;2023-03-23T08:10:35;32.23;;;13.10;;
3967;SDS011;9221;42.646;23.380;2023-03-23T08:13:01;32.87;;;13.80;;
3967;SDS011;9221;42.646;23.380;2023-03-23T08:15:27;34.80;;;13.40;;
3967;SDS011;9221;42.646;23.380;2023-03-23T08:17:53;29.20;;;12.30;;
3967;SDS011;9221;42.646;23.380;2023-03-23T08:20:19;24.83;;;10.17;;
3967;SDS011;9221;42.646;23.380;2023-03-23T08:22:45;30.43;;;11.67;;
3967;SDS011;9221;42.646;23.380;2023-03-23T08:25:15;36.40;;;14.23;;
3967;SDS011;9221;42.646;23.380;2023-03-23T08:27:42;28.80;;;12.87;;
3967;SDS011;9221;42.646;23.380;2023-03-23T08:30:09;32.23;;;13.13;;
3967;SDS011;9221;42.646;23.380;2023-03-23T08:32:40;31.13;;;12.73;;
3967;SDS011;9221;42.646;23.380;2023-03-23T08:35:07;28.60;;;12.17;;
3967;SDS011;9221;42.646;23.380;2023-03-23T08:37:34;27.90;;;11.53;;
3967;SDS011;9221;42.646;23.380;2023-03-23T08:40:00;25.80;;;10.33;;
3967;SDS011;9221;42.646;23.380;2023-03-23T08:42:32;17.23;;;7.90;;
3967;SDS011;9221;42.646;23.380;2023-03-23T08:44:57;25.17;;;8.70;;
3967;SDS011;9221;42.646;23.380;2023-03-23T08:47:22;22.97;;;9.43;;
3967;SDS011;9221;42.646;23.380;2023-03-23T08:49:48;21.50;;;9.47;;
3967;SDS011;9221;42.646;23.380;2023-03-23T08:52:18;21.80;;;9.03;;
3967;SDS011;9221;42.646;23.380;2023-03-23T08:54:43;15.20;;;7.37;;
3967;SDS011;9221;42.646;23.380;2023-03-23T08:57:12;16.13;;;6.67;;
3967;SDS011;9221;42.646;23.380;2023-03-23T08:59:38;14.90;;;6.07;;
3967;SDS011;9221;42.646;23.380;2023-03-23T09:02:03;13.50;;;6.70;;
3967;SDS011;9221;42.646;23.380;2023-03-23T09:04:29;16.33;;;6.73;;
3967;SDS011;9221;42.646;23.380;2023-03-23T09:06:55;9.40;;;4.83;;
3967;SDS011;9221;42.646;23.380;2023-03-23T09:09:22;9.70;;;4.80;;
3967;SDS011;9221;42.646;23.380;2023-03-23T09:11:47;10.83;;;5.47;;
3967;SDS011;9221;42.646;23.380;2023-03-23T09:14:13;11.73;;;5.27;;
3967;SDS011;9221;42.646;23.380;2023-03-23T09:16:38;12.60;;;5.87;;
3967;SDS011;9221;42.646;23.380;2023-03-23T09:19:05;13.50;;;5.67;;
3967;SDS011;9221;42.646;23.380;2023-03-23T09:21:30;12.07;;;6.23;;
3967;SDS011;9221;42.646;23.380;2023-03-23T09:23:56;12.50;;;5.57;;
3967;SDS011;9221;42.646;23.380;2023-03-23T09:26:25;9.60;;;4.80;;
3967;SDS011;9221;42.646;23.380;2023-03-23T09:28:51;13.00;;;5.70;;
3967;SDS011;9221;42.646;23.380;2023-03-23T09:31:16;11.97;;;5.80;;
3967;SDS011;9221;42.646;23.380;2023-03-23T09:33:45;12.87;;;4.70;;
3967;SDS011;9221;42.646;23.380;2023-03-23T09:36:11;10.87;;;5.20;;
3967;SDS011;9221;42.646;23.380;2023-03-23T09:38:39;8.63;;;4.50;;
3967;SDS011;9221;42.646;23.380;2023-03-23T09:49:48;9.07;;;4.67;;
3967;SDS011;9221;42.646;23.380;2023-03-23T09:52:22;11.07;;;4.47;;
3967;SDS011;9221;42.646;23.380;2023-03-23T09:54:53;8.73;;;4.50;;
3967;SDS011;9221;42.646;23.380;2023-03-23T09:57:26;11.13;;;4.63;;
3967;SDS011;9221;42.646;23.380;2023-03-23T10:07:59;8.10;;;4.40;;
3967;SDS011;9221;42.646;23.380;2023-03-23T10:11:02;8.83;;;4.67;;
3967;SDS011;9221;42.646;23.380;2023-03-23T10:13:30;7.93;;;3.73;;
3967;SDS011;9221;42.646;23.380;2023-03-23T10:15:57;7.03;;;4.23;;
3967;SDS011;9221;42.646;23.380;2023-03-23T10:20:59;8.83;;;4.67;;
3967;SDS011;9221;42.646;23.380;2023-03-23T10:28:54;10.73;;;4.57;;
3967;SDS011;9221;42.646;23.380;2023-03-23T10:31:35;9.80;;;5.03;;
3967;SDS011;9221;42.646;23.380;2023-03-23T10:34:04;9.57;;;4.23;;
3967;SDS011;9221;42.646;23.380;2023-03-23T10:36:38;10.13;;;5.03;;
3967;SDS011;9221;42.646;23.380;2023-03-23T10:39:17;7.63;;;3.63;;
3967;SDS011;9221;42.646;23.380;2023-03-23T10:41:48;7.30;;;3.93;;
3967;SDS011;9221;42.646;23.380;2023-03-23T10:44:17;7.53;;;3.87;;
3967;SDS011;9221;42.646;23.380;2023-03-23T10:46:53;8.13;;;3.63;;
3967;SDS011;9221;42.646;23.380;2023-03-23T10:49:25;8.57;;;4.57;;
3967;SDS011;9221;42.646;23.380;2023-03-23T10:52:18;7.97;;;4.43;;
3967;SDS011;9221;42.646;23.380;2023-03-23T10:54:57;8.57;;;4.57;;
3967;SDS011;9221;42.646;23.380;2023-03-23T10:57:35;7.53;;;4.03;;
3967;SDS011;9221;42.646;23.380;2023-03-23T11:00:25;7.13;;;3.80;;
3967;SDS011;9221;42.646;23.380;2023-03-23T11:05:23;7.73;;;4.60;;
3967;SDS011;9221;42.646;23.380;2023-03-23T11:07:55;8.10;;;4.27;;
3967;SDS011;9221;42.646;23.380;2023-03-23T11:12:52;8.10;;;3.87;;
3967;SDS011;9221;42.646;23.380;2023-03-23T11:17:54;6.80;;;3.80;;
3967;SDS011;9221;42.646;23.380;2023-03-23T11:20:34;7.30;;;4.10;;
3967;SDS011;9221;42.646;23.380;2023-03-23T11:23:08;8.07;;;4.10;;
3967;SDS011;9221;42.646;23.380;2023-03-23T11:28:30;9.47;;;4.60;;
3967;SDS011;9221;42.646;23.380;2023-03-23T11:30:59;9.17;;;4.40;;
3967;SDS011;9221;42.646;23.380;2023-03-23T11:33:30;7.40;;;4.27;;
3967;SDS011;9221;42.646;23.380;2023-03-23T11:36:03;11.70;;;5.60;;
3967;SDS011;9221;42.646;23.380;2023-03-23T11:38:31;10.03;;;4.20;;
3967;SDS011;9221;42.646;23.380;2023-03-23T11:40:58;8.63;;;4.80;;
3967;SDS011;9221;42.646;23.380;2023-03-23T11:43:25;10.40;;;3.73;;
3967;SDS011;9221;42.646;23.380;2023-03-23T11:48:38;11.23;;;4.10;;
3967;SDS011;9221;42.646;23.380;2023-03-23T11:53:41;8.40;;;4.10;;
3967;SDS011;9221;42.646;23.380;2023-03-23T11:56:35;8.87;;;4.10;;
3967;SDS011;9221;42.646;23.380;2023-03-23T11:59:03;6.83;;;3.90;;
3967;SDS011;9221;42.646;23.380;2023-03-23T12:23:10;8.00;;;3.47;;
3967;SDS011;9221;42.646;23.380;2023-03-23T12:31:21;6.17;;;3.67;;
3967;SDS011;9221;42.646;23.380;2023-03-23T12:37:04;7.03;;;3.90;;
3967;SDS011;9221;42.646;23.380;2023-03-23T12:44:58;6.00;;;3.40;;
3967;SDS011;9221;42.646;23.380;2023-03-23T12:47:34;4.70;;;3.33;;
3967;SDS011;9221;42.646;23.380;2023-03-23T12:50:23;7.33;;;3.77;;
3967;SDS011;9221;42.646;23.380;2023-03-23T12:53:02;8.77;;;3.47;;
3967;SDS011;9221;42.646;23.380;2023-03-23T12:58:10;4.20;;;3.20;;
3967;SDS011;9221;42.646;23.380;2023-03-23T13:03:51;6.40;;;3.53;;
3967;SDS011;9221;42.646;23.380;2023-03-23T13:06:39;9.13;;;4.47;;
3967;SDS011;9221;42.646;23.380;2023-03-23T13:11:44;6.43;;;3.90;;
3967;SDS011;9221;42.646;23.380;2023-03-23T13:17:05;7.80;;;4.37;;
3967;SDS011;9221;42.646;23.380;2023-03-23T13:31:14;12.03;;;4.23;;
3967;SDS011;9221;42.646;23.380;2023-03-23T13:33:45;9.00;;;4.57;;
3967;SDS011;9221;42.646;23.380;2023-03-23T13:36:14;7.17;;;3.33;;
3967;SDS011;9221;42.646;23.380;2023-03-23T13:38:50;16.27;;;4.63;;
3967;SDS011;9221;42.646;23.380;2023-03-23T13:41:17;15.30;;;4.47;;
3967;SDS011;9221;42.646;23.380;2023-03-23T13:43:45;8.20;;;3.10;;
3967;SDS011;9221;42.646;23.380;2023-03-23T13:49:44;8.47;;;4.10;;
3967;SDS011;9221;42.646;23.380;2023-03-23T13:54:14;7.77;;;4.33;;
3967;SDS011;9221;42.646;23.380;2023-03-23T14:01:51;11.40;;;4.60;;
3967;SDS011;9221;42.646;23.380;2023-03-23T14:04:18;8.90;;;3.67;;
3967;SDS011;9221;42.646;23.380;2023-03-23T14:06:48;9.63;;;3.93;;
3967;SDS011;9221;42.646;23.380;2023-03-23T14:09:17;7.43;;;4.30;;
3967;SDS011;9221;42.646;23.380;2023-03-23T14:11:57;8.27;;;4.10;;
3967;SDS011;9221;42.646;23.380;2023-03-23T14:14:33;7.53;;;3.70;;
3967;SDS011;9221;42.646;23.380;2023-03-23T14:17:05;14.17;;;3.87;;
3967;SDS011;9221;42.646;23.380;2023-03-23T14:19:37;6.20;;;3.83;;
3967;SDS011;9221;42.646;23.380;2023-03-23T14:22:04;7.47;;;3.40;;
3967;SDS011;9221;42.646;23.380;2023-03-23T14:24:43;11.30;;;3.40;;
3967;SDS011;9221;42.646;23.380;2023-03-23T14:27:13;8.77;;;4.10;;
3967;SDS011;9221;42.646;23.380;2023-03-23T14:29:41;4.87;;;3.13;;
3967;SDS011;9221;42.646;23.380;2023-03-23T14:32:08;11.40;;;3.97;;
3967;SDS011;9221;42.646;23.380;2023-03-23T14:34:39;5.40;;;3.50;;
3967;SDS011;9221;42.646;23.380;2023-03-23T14:37:04;8.80;;;3.63;;
3967;SDS011;9221;42.646;23.380;2023-03-23T14:39:37;10.07;;;3.60;;
3967;SDS011;9221;42.646;23.380;2023-03-23T14:42:04;7.77;;;4.03;;
3967;SDS011;9221;42.646;23.380;2023-03-23T14:44:34;10.17;;;4.00;;
3967;SDS011;9221;42.646;23.380;2023-03-23T14:47:06;8.07;;;3.80;;
3967;SDS011;9221;42.646;23.380;2023-03-23T14:49:38;8.50;;;4.50;;
3967;SDS011;9221;42.646;23.380;2023-03-23T14:54:35;9.60;;;4.70;;
3967;SDS011;9221;42.646;23.380;2023-03-23T14:59:45;11.23;;;3.83;;
3967;SDS011;9221;42.646;23.380;2023-03-23T15:02:12;7.00;;;3.70;;
3967;SDS011;9221;42.646;23.380;2023-03-23T15:04:43;9.20;;;4.30;;
3967;SDS011;9221;42.646;23.380;2023-03-23T15:07:11;8.33;;;4.33;;
3967;SDS011;9221;42.646;23.380;2023-03-23T15:09:39;8.00;;;3.90;;
3967;SDS011;9221;42.646;23.380;2023-03-23T15:12:09;7.53;;;3.73;;
3967;SDS011;9221;42.646;23.380;2023-03-23T15:14:51;7.40;;;3.90;;
3967;SDS011;9221;42.646;23.380;2023-03-23T15:17:20;8.07;;;4.30;;
3967;SDS011;9221;42.646;23.380;2023-03-23T15:19:51;8.97;;;4.07;;
3967;SDS011;9221;42.646;23.380;2023-03-23T15:24:52;6.80;;;3.80;;
3967;SDS011;9221;42.646;23.380;2023-03-23T15:27:33;8.60;;;3.70;;
3967;SDS011;9221;42.646;23.380;2023-03-23T15:32:49;7.80;;;4.10;;
3967;SDS011;9221;42.646;23.380;2023-03-23T15:35:22;10.77;;;3.00;;
3967;SDS011;9221;42.646;23.380;2023-03-23T15:37:58;11.13;;;3.77;;
3967;SDS011;9221;42.646;23.380;2023-03-23T15:40:26;7.90;;;3.60;;
3967;SDS011;9221;42.646;23.380;2023-03-23T15:45:51;5.90;;;3.53;;
3967;SDS011;9221;42.646;23.380;2023-03-23T15:48:21;10.33;;;3.63;;
3967;SDS011;9221;42.646;23.380;2023-03-23T15:50:48;8.90;;;3.80;;
3967;SDS011;9221;42.646;23.380;2023-03-23T15:53:18;6.53;;;3.53;;
3967;SDS011;9221;42.646;23.380;2023-03-23T15:55:49;5.53;;;3.03;;
3967;SDS011;9221;42.646;23.380;2023-03-23T15:58:15;8.10;;;3.67;;
3967;SDS011;9221;42.646;23.380;2023-03-23T16:00:40;9.03;;;3.93;;
3967;SDS011;9221;42.646;23.380;2023-03-23T16:03:11;9.10;;;4.03;;
3967;SDS011;9221;42.646;23.380;2023-03-23T16:05:40;8.10;;;4.20;;
3967;SDS011;9221;42.646;23.380;2023-03-23T16:08:07;9.10;;;3.50;;
3967;SDS011;9221;42.646;23.380;2023-03-23T16:10:35;6.87;;;3.83;;
3967;SDS011;9221;42.646;23.380;2023-03-23T16:13:01;9.90;;;3.50;;
3967;SDS011;9221;42.646;23.380;2023-03-23T16:15:26;5.70;;;3.00;;
3967;SDS011;9221;42.646;23.380;2023-03-23T16:17:52;5.83;;;3.40;;
3967;SDS011;9221;42.646;23.380;2023-03-23T16:20:19;5.67;;;2.97;;
3967;SDS011;9221;42.646;23.380;2023-03-23T16:22:46;8.17;;;3.93;;
3967;SDS011;9221;42.646;23.380;2023-03-23T16:25:13;5.43;;;3.00;;
3967;SDS011;9221;42.646;23.380;2023-03-23T16:27:39;6.10;;;3.17;;
3967;SDS011;9221;42.646;23.380;2023-03-23T16:30:25;7.70;;;3.63;;
3967;SDS011;9221;42.646;23.380;2023-03-23T16:32:51;8.00;;;3.80;;
3967;SDS011;9221;42.646;23.380;2023-03-23T16:35:18;5.90;;;3.30;;
3967;SDS011;9221;42.646;23.380;2023-03-23T16:37:53;9.83;;;3.30;;
3967;SDS011;9221;42.646;23.380;2023-03-23T16:40:19;5.40;;;2.80;;
3967;SDS011;9221;42.646;23.380;2023-03-23T16:42:46;6.77;;;2.60;;
3967;SDS011;9221;42.646;23.380;2023-03-23T16:45:12;9.20;;;4.17;;
3967;SDS011;9221;42.646;23.380;2023-03-23T16:47:38;13.83;;;3.73;;
3967;SDS011;9221;42.646;23.380;2023-03-23T16:50:05;12.40;;;3.80;;
3967;SDS011;9221;42.646;23.380;2023-03-23T16:52:35;9.47;;;4.20;;
3967;SDS011;9221;42.646;23.380;2023-03-23T16:55:00;6.53;;;3.47;;
3967;SDS011;9221;42.646;23.380;2023-03-23T16:57:26;13.67;;;4.17;;
3967;SDS011;9221;42.646;23.380;2023-03-23T16:59:51;12.03;;;4.30;;
3967;SDS011;9221;42.646;23.380;2023-03-23T17:02:17;7.23;;;3.60;;
3967;SDS011;9221;42.646;23.380;2023-03-23T17:04:43;14.60;;;4.90;;
3967;SDS011;9221;42.646;23.380;2023-03-23T17:07:10;15.03;;;4.87;;
3967;SDS011;9221;42.646;23.380;2023-03-23T17:09:36;11.93;;;4.90;;
3967;SDS011;9221;42.646;23.380;2023-03-23T17:12:02;11.80;;;4.83;;
3967;SDS011;9221;42.646;23.380;2023-03-23T17:14:28;15.30;;;4.90;;
3967;SDS011;9221;42.646;23.380;2023-03-23T17:16:53;19.57;;;6.90;;
3967;SDS011;9221;42.646;23.380;2023-03-23T17:19:18;12.90;;;6.30;;
3967;SDS011;9221;42.646;23.380;2023-03-23T17:21:44;21.37;;;7.33;;
3967;SDS011;9221;42.646;23.380;2023-03-23T17:24:09;23.83;;;7.67;;
3967;SDS011;9221;42.646;23.380;2023-03-23T17:26:35;25.50;;;7.10;;